createdAt,value
2024-04-14T00:02:04.185Z,100.00
2024-04-14T00:04:31.158Z,100.00
2024-04-14T00:06:58.329Z,100.00
2024-04-14T00:09:25.114Z,100.00
2024-04-14T00:11:51.829Z,100.00
2024-04-14T00:14:18.882Z,100.00
2024-04-14T00:16:46.076Z,100.00
2024-04-14T00:19:12.863Z,100.00
2024-04-14T00:21:40.316Z,100.00
2024-04-14T00:24:07.230Z,100.00
2024-04-14T00:26:34.004Z,100.00
2024-04-14T00:29:00.786Z,100.00
2024-04-14T00:31:27.523Z,100.00
2024-04-14T00:33:54.202Z,100.00
2024-04-14T00:36:21.269Z,100.00
2024-04-14T00:38:48.432Z,100.00
2024-04-14T00:41:15.379Z,100.00
2024-04-14T00:43:42.106Z,100.00
2024-04-14T00:46:09.278Z,100.00
2024-04-14T00:48:36.297Z,100.00
2024-04-14T00:51:05.581Z,100.00
2024-04-14T00:53:33.029Z,100.00
2024-04-14T00:56:00.133Z,100.00
2024-04-14T00:58:27.761Z,100.00
2024-04-14T01:00:54.629Z,100.00
2024-04-14T01:03:21.661Z,100.00
2024-04-14T01:05:48.408Z,100.00
2024-04-14T01:08:16.080Z,100.00
2024-04-14T01:10:43.801Z,100.00
2024-04-14T01:13:10.828Z,100.00
2024-04-14T01:15:37.647Z,100.00
2024-04-14T01:18:04.523Z,100.00
2024-04-14T01:20:31.502Z,100.00
2024-04-14T01:22:58.293Z,100.00
2024-04-14T01:25:25.119Z,100.00
2024-04-14T01:27:52.304Z,100.00
2024-04-14T01:30:19.562Z,100.00
2024-04-14T01:32:46.258Z,100.00
2024-04-14T01:35:12.985Z,100.00
2024-04-14T01:37:40.118Z,100.00
2024-04-14T01:40:07.915Z,100.00
2024-04-14T01:42:34.935Z,100.00
2024-04-14T01:45:02.329Z,100.00
2024-04-14T01:47:29.059Z,100.00
2024-04-14T01:49:55.758Z,100.00
2024-04-14T01:52:25.588Z,100.00
2024-04-14T01:54:52.609Z,100.00
2024-04-14T01:57:19.336Z,100.00
2024-04-14T01:59:46.481Z,100.00
2024-04-14T02:02:13.391Z,100.00
2024-04-14T02:04:40.207Z,100.00
2024-04-14T02:07:07.053Z,100.00
2024-04-14T02:09:33.969Z,100.00
2024-04-14T02:12:00.654Z,100.00
2024-04-14T02:14:27.439Z,100.00
2024-04-14T02:16:54.312Z,100.00
2024-04-14T02:19:21.192Z,100.00
2024-04-14T02:21:48.076Z,100.00
2024-04-14T02:24:14.771Z,100.00
2024-04-14T02:26:41.747Z,100.00
2024-04-14T02:29:08.970Z,100.00
2024-04-14T02:31:35.668Z,100.00
2024-04-14T02:34:02.803Z,100.00
2024-04-14T02:36:29.843Z,100.00
2024-04-14T02:38:57.088Z,100.00
2024-04-14T02:41:23.897Z,100.00
2024-04-14T02:43:50.730Z,100.00
2024-04-14T02:46:17.662Z,100.00
2024-04-14T02:48:49.774Z,100.00
2024-04-14T02:51:16.894Z,100.00
2024-04-14T02:53:43.822Z,100.00
2024-04-14T02:56:10.668Z,100.00
2024-04-14T02:58:42.802Z,100.00
2024-04-14T03:01:13.631Z,100.00
2024-04-14T03:03:40.955Z,100.00
2024-04-14T03:06:08.280Z,100.00
2024-04-14T03:08:35.352Z,100.00
2024-04-14T03:11:02.467Z,100.00
2024-04-14T03:13:29.359Z,100.00
2024-04-14T03:15:56.502Z,100.00
2024-04-14T03:18:23.287Z,100.00
2024-04-14T03:21:00.889Z,100.00
2024-04-14T03:23:28.588Z,100.00
2024-04-14T03:25:56.217Z,100.00
2024-04-14T03:28:24.431Z,100.00
2024-04-14T03:30:51.709Z,100.00
2024-04-14T03:33:18.832Z,100.00
2024-04-14T03:35:46.519Z,100.00
2024-04-14T03:38:13.251Z,100.00
2024-04-14T03:40:40.135Z,100.00
2024-04-14T03:43:06.826Z,100.00
2024-04-14T03:45:34.218Z,100.00
2024-04-14T03:48:01.526Z,100.00
2024-04-14T03:50:28.297Z,100.00
2024-04-14T03:52:54.991Z,100.00
2024-04-14T03:55:21.928Z,100.00
2024-04-14T03:57:48.592Z,100.00
2024-04-14T04:00:15.348Z,100.00
2024-04-14T04:02:42.185Z,100.00
2024-04-14T04:05:09.568Z,100.00
2024-04-14T04:07:36.761Z,100.00
2024-04-14T04:10:04.006Z,100.00
2024-04-14T04:12:30.765Z,100.00
2024-04-14T04:14:57.659Z,100.00
2024-04-14T04:17:24.352Z,100.00
2024-04-14T04:19:51.208Z,100.00
2024-04-14T04:22:18.101Z,100.00
2024-04-14T04:24:44.926Z,100.00
2024-04-14T04:27:11.659Z,100.00
2024-04-14T04:29:39.102Z,100.00
2024-04-14T04:32:05.968Z,100.00
2024-04-14T04:34:32.903Z,100.00
2024-04-14T04:36:59.758Z,100.00
2024-04-14T04:39:26.499Z,100.00
2024-04-14T04:41:53.467Z,100.00
2024-04-14T04:44:20.243Z,100.00
2024-04-14T04:46:47.206Z,100.00
2024-04-14T04:49:14.113Z,100.00
2024-04-14T04:51:40.927Z,100.00
2024-04-14T04:54:07.621Z,100.00
2024-04-14T04:56:34.467Z,100.00
2024-04-14T04:59:01.251Z,100.00
2024-04-14T05:01:27.971Z,100.00
2024-04-14T05:03:55.265Z,100.00
2024-04-14T05:06:21.946Z,100.00
2024-04-14T05:08:48.896Z,100.00
2024-04-14T05:11:15.972Z,100.00
2024-04-14T05:13:42.671Z,100.00
2024-04-14T05:16:10.173Z,100.00
2024-04-14T05:18:37.471Z,100.00
2024-04-14T05:21:04.639Z,100.00
2024-04-14T05:23:31.325Z,100.00
2024-04-14T05:26:01.025Z,100.00
2024-04-14T05:28:27.964Z,100.00
2024-04-14T05:30:54.671Z,100.00
2024-04-14T05:33:21.517Z,100.00
2024-04-14T05:35:58.710Z,100.00
2024-04-14T05:38:26.041Z,100.00
2024-04-14T05:40:52.870Z,100.00
2024-04-14T05:43:19.576Z,100.00
2024-04-14T05:45:47.467Z,100.00
2024-04-14T05:48:15.342Z,100.00
2024-04-14T05:50:42.088Z,100.00
2024-04-14T05:53:09.127Z,100.00
2024-04-14T05:55:35.765Z,100.00
2024-04-14T05:58:02.472Z,100.00
2024-04-14T06:00:30.078Z,100.00
2024-04-14T06:02:56.957Z,100.00
2024-04-14T06:05:23.726Z,100.00
2024-04-14T06:07:50.691Z,100.00
2024-04-14T06:10:17.445Z,100.00
2024-04-14T06:12:44.136Z,100.00
2024-04-14T06:15:11.014Z,100.00
2024-04-14T06:17:37.747Z,100.00
2024-04-14T06:20:04.990Z,100.00
2024-04-14T06:22:32.442Z,100.00
2024-04-14T06:24:59.282Z,100.00
2024-04-14T06:27:26.465Z,100.00
2024-04-14T06:29:53.258Z,100.00
2024-04-14T06:32:20.124Z,100.00
2024-04-14T06:34:46.821Z,100.00
2024-04-14T06:37:17.930Z,100.00
2024-04-14T06:39:44.803Z,100.00
2024-04-14T06:42:14.084Z,100.00
2024-04-14T06:44:42.003Z,100.00
2024-04-14T06:47:08.718Z,100.00
2024-04-14T06:49:35.471Z,100.00
2024-04-14T06:52:02.433Z,100.00
2024-04-14T06:54:29.170Z,100.00
2024-04-14T06:56:56.123Z,100.00
2024-04-14T06:59:22.933Z,100.00
2024-04-14T07:01:49.832Z,99.15
2024-04-14T07:04:16.878Z,99.04
2024-04-14T07:06:43.635Z,96.30
2024-04-14T07:09:10.516Z,92.90
2024-04-14T07:11:37.362Z,85.88
2024-04-14T07:14:04.025Z,78.14
2024-04-14T07:16:30.742Z,77.00
2024-04-14T07:18:57.632Z,75.41
2024-04-14T07:21:24.410Z,71.88
2024-04-14T07:23:51.096Z,69.66
2024-04-14T07:26:17.927Z,71.53
2024-04-14T07:28:44.768Z,71.07
2024-04-14T07:31:11.437Z,69.08
2024-04-14T07:33:38.421Z,66.32
2024-04-14T07:36:05.601Z,66.31
2024-04-14T07:38:32.296Z,64.22
2024-04-14T07:40:59.236Z,64.21
2024-04-14T07:43:26.119Z,62.23
2024-04-14T07:45:52.915Z,61.93
2024-04-14T07:48:19.828Z,60.28
2024-04-14T07:50:46.764Z,59.74
2024-04-14T07:53:13.549Z,60.13
2024-04-14T07:55:40.366Z,60.86
2024-04-14T07:58:07.458Z,60.18
2024-04-14T08:00:34.420Z,61.67
2024-04-14T08:03:01.172Z,60.36
2024-04-14T08:05:28.193Z,61.37
2024-04-14T08:07:55.723Z,63.06
2024-04-14T08:10:22.412Z,64.37
2024-04-14T08:12:49.107Z,63.96
2024-04-14T08:15:16.046Z,63.50
2024-04-14T08:17:43.321Z,65.25
2024-04-14T08:20:12.733Z,65.00
2024-04-14T08:22:39.751Z,64.24
2024-04-14T08:25:06.827Z,63.79
2024-04-14T08:27:33.746Z,65.35
2024-04-14T08:30:00.504Z,63.69
2024-04-14T08:32:27.451Z,63.29
2024-04-14T08:34:54.307Z,60.47
2024-04-14T08:37:21.779Z,60.63
2024-04-14T08:39:48.799Z,60.40
2024-04-14T08:42:15.795Z,58.94
2024-04-14T08:44:43.626Z,59.83
2024-04-14T08:47:11.310Z,58.85
2024-04-14T08:49:40.554Z,58.50
2024-04-14T08:52:09.824Z,58.13
2024-04-14T08:54:36.820Z,57.83
2024-04-14T08:57:06.298Z,57.33
2024-04-14T08:59:34.578Z,56.76
2024-04-14T09:02:04.405Z,58.59
2024-04-14T09:04:31.475Z,59.07
2024-04-14T09:06:58.607Z,59.50
2024-04-14T09:09:25.361Z,58.66
2024-04-14T09:11:53.094Z,59.73
2024-04-14T09:14:20.232Z,60.21
2024-04-14T09:16:47.235Z,60.33
2024-04-14T09:19:14.147Z,60.29
2024-04-14T09:21:41.014Z,60.26
2024-04-14T09:24:07.798Z,59.45
2024-04-14T09:26:34.787Z,59.90
2024-04-14T09:29:08.382Z,59.66
2024-04-14T09:31:36.416Z,59.89
2024-04-14T09:34:07.190Z,59.97
2024-04-14T09:36:35.927Z,60.26
2024-04-14T09:39:04.875Z,60.99
2024-04-14T09:41:33.579Z,60.42
2024-04-14T09:44:01.075Z,59.84
2024-04-14T09:46:28.740Z,58.89
2024-04-14T09:48:55.639Z,59.06
2024-04-14T09:51:26.250Z,71.18
2024-04-14T09:53:54.182Z,96.64
2024-04-14T09:56:21.332Z,100.00
2024-04-14T09:58:48.157Z,100.00
2024-04-14T10:01:21.932Z,100.00
2024-04-14T10:03:53.188Z,100.00
2024-04-14T10:06:21.305Z,100.00
2024-04-14T10:08:48.157Z,100.00
2024-04-14T10:11:15.075Z,100.00
2024-04-14T10:13:52.644Z,100.00
2024-04-14T10:16:21.359Z,100.00
2024-04-14T10:18:49.315Z,100.00
2024-04-14T10:21:22.854Z,100.00
2024-04-14T10:23:51.069Z,100.00
2024-04-14T10:26:19.825Z,100.00
2024-04-14T10:28:51.006Z,100.00
2024-04-14T10:31:28.575Z,100.00
2024-04-14T10:34:05.875Z,100.00
2024-04-14T10:36:34.633Z,100.00
2024-04-14T10:39:01.511Z,98.57
2024-04-14T10:41:29.594Z,97.52
2024-04-14T10:43:56.510Z,93.71
2024-04-14T10:46:23.651Z,92.48
2024-04-14T10:48:50.711Z,89.78
2024-04-14T10:51:17.763Z,85.89
2024-04-14T10:53:44.704Z,88.49
2024-04-14T10:56:11.490Z,86.21
2024-04-14T10:58:38.585Z,84.39
2024-04-14T11:01:05.659Z,85.18
2024-04-14T11:03:33.942Z,85.19
2024-04-14T11:06:01.620Z,83.45
2024-04-14T11:08:28.762Z,82.69
2024-04-14T11:10:56.592Z,81.82
2024-04-14T11:13:26.556Z,80.77
2024-04-14T11:16:00.118Z,79.42
2024-04-14T11:18:29.002Z,80.62
2024-04-14T11:20:55.935Z,79.57
2024-04-14T11:23:23.398Z,80.11
2024-04-14T11:25:51.155Z,78.67
2024-04-14T11:28:17.946Z,76.67
2024-04-14T11:30:45.215Z,77.02
2024-04-14T11:33:12.191Z,75.99
2024-04-14T11:35:40.138Z,75.39
2024-04-14T11:38:07.464Z,75.02
2024-04-14T11:40:34.285Z,74.85
2024-04-14T11:43:01.053Z,74.97
2024-04-14T11:45:27.959Z,74.53
2024-04-14T11:47:54.901Z,75.40
2024-04-14T11:50:21.623Z,73.52
2024-04-14T11:52:49.421Z,73.95
2024-04-14T11:55:16.188Z,71.57
2024-04-14T11:57:43.072Z,73.14
2024-04-14T12:00:10.154Z,74.11
2024-04-14T12:02:36.890Z,72.24
2024-04-14T12:05:03.960Z,72.12
2024-04-14T12:07:30.762Z,71.58
2024-04-14T12:09:57.602Z,70.94
2024-04-14T12:12:24.457Z,69.66
2024-04-14T12:14:51.199Z,69.79
2024-04-14T12:17:18.113Z,69.53
2024-04-14T12:19:45.133Z,69.46
2024-04-14T12:22:11.858Z,69.07
2024-04-14T12:24:38.923Z,69.37
2024-04-14T12:27:05.780Z,67.74
2024-04-14T12:29:32.967Z,66.49
2024-04-14T12:32:00.082Z,67.90
2024-04-14T12:34:26.971Z,68.21
2024-04-14T12:36:53.819Z,66.81
2024-04-14T12:39:27.445Z,66.29
2024-04-14T12:41:57.704Z,66.46
2024-04-14T12:44:24.433Z,66.44
2024-04-14T12:46:51.268Z,66.75
2024-04-14T12:49:23.729Z,62.76
2024-04-14T12:51:50.734Z,65.00
2024-04-14T12:54:17.506Z,65.09
2024-04-14T12:56:44.268Z,65.10
2024-04-14T12:59:11.213Z,64.44
2024-04-14T13:01:38.201Z,63.38
2024-04-14T13:04:05.427Z,64.01
2024-04-14T13:06:32.809Z,63.50
2024-04-14T13:09:00.959Z,63.33
2024-04-14T13:11:27.854Z,61.89
2024-04-14T13:13:55.831Z,62.20
2024-04-14T13:16:22.662Z,61.67
2024-04-14T13:18:49.676Z,62.33
2024-04-14T13:21:18.740Z,61.65
2024-04-14T13:23:48.813Z,61.23
2024-04-14T13:26:16.104Z,61.49
2024-04-14T13:28:43.017Z,60.75
2024-04-14T13:31:10.272Z,61.04
2024-04-14T13:33:37.200Z,60.26
2024-04-14T13:36:05.041Z,59.26
2024-04-14T13:38:31.880Z,59.32
2024-04-14T13:41:02.453Z,58.70
2024-04-14T13:43:29.222Z,59.10
2024-04-14T13:45:55.919Z,59.53
2024-04-14T13:48:22.634Z,58.48
2024-04-14T13:50:49.431Z,58.93
2024-04-14T13:53:16.126Z,58.03
2024-04-14T13:55:42.904Z,58.46
2024-04-14T13:58:10.419Z,58.18
2024-04-14T14:00:40.159Z,57.33
2024-04-14T14:03:06.844Z,57.05
2024-04-14T14:05:33.885Z,57.45
2024-04-14T14:08:00.607Z,57.13
2024-04-14T14:10:28.247Z,56.44
2024-04-14T14:12:55.275Z,56.87
2024-04-14T14:15:22.108Z,56.09
2024-04-14T14:17:48.902Z,56.16
2024-04-14T14:20:16.005Z,56.34
2024-04-14T14:22:42.810Z,56.16
2024-04-14T14:25:09.658Z,55.78
2024-04-14T14:27:37.101Z,55.65
2024-04-14T14:30:04.125Z,56.44
2024-04-14T14:32:32.958Z,55.90
2024-04-14T14:35:18.568Z,54.93
2024-04-14T14:37:45.278Z,49.50
2024-04-14T14:40:12.342Z,54.63
2024-04-14T14:42:39.177Z,54.21
2024-04-14T14:45:06.453Z,53.75
2024-04-14T14:47:33.293Z,53.72
2024-04-14T14:50:00.229Z,52.31
2024-04-14T14:52:26.952Z,51.70
2024-04-14T14:54:53.777Z,51.23
2024-04-14T14:57:20.565Z,50.67
2024-04-14T14:59:47.360Z,49.73
2024-04-14T15:02:14.220Z,50.07
2024-04-14T15:04:41.208Z,50.08
2024-04-14T15:07:08.049Z,49.84
2024-04-14T15:09:34.812Z,49.48
2024-04-14T15:12:01.672Z,49.76
2024-04-14T15:14:28.596Z,49.28
2024-04-14T15:16:56.091Z,49.50
2024-04-14T15:19:22.783Z,49.24
2024-04-14T15:21:49.714Z,49.23
2024-04-14T15:24:17.538Z,49.02
2024-04-14T15:26:45.224Z,48.65
2024-04-14T15:29:12.235Z,49.01
2024-04-14T15:31:38.985Z,48.64
2024-04-14T15:34:06.011Z,48.89
2024-04-14T15:36:32.985Z,49.42
2024-04-14T15:38:59.707Z,48.64
2024-04-14T15:41:26.406Z,48.95
2024-04-14T15:43:53.380Z,49.28
2024-04-14T15:46:20.530Z,49.13
2024-04-14T15:48:47.555Z,49.55
2024-04-14T15:51:20.138Z,49.46
2024-04-14T15:53:48.085Z,49.29
2024-04-14T15:56:14.800Z,49.96
2024-04-14T15:58:41.758Z,49.29
2024-04-14T16:01:08.680Z,49.71
2024-04-14T16:03:35.762Z,49.39
2024-04-14T16:06:02.559Z,50.25
2024-04-14T16:08:29.252Z,50.21
2024-04-14T16:11:03.422Z,49.43
2024-04-14T16:13:30.245Z,50.13
2024-04-14T16:16:11.536Z,47.64
2024-04-14T16:18:40.150Z,50.24
2024-04-14T16:21:08.177Z,50.09
2024-04-14T16:23:44.436Z,48.38
2024-04-14T16:26:11.939Z,49.32
2024-04-14T16:28:39.746Z,49.13
2024-04-14T16:31:07.008Z,48.66
2024-04-14T16:33:33.975Z,49.49
2024-04-14T16:36:01.053Z,49.46
2024-04-14T16:38:29.568Z,49.32
2024-04-14T16:40:56.313Z,48.90
2024-04-14T16:43:23.580Z,48.88
2024-04-14T16:45:50.512Z,48.84
2024-04-14T16:48:18.340Z,48.71
2024-04-14T16:50:45.393Z,48.79
2024-04-14T16:53:12.770Z,48.57
2024-04-14T16:55:39.537Z,48.65
2024-04-14T16:58:06.456Z,48.87
2024-04-14T17:00:34.210Z,48.81
2024-04-14T17:03:01.636Z,48.95
2024-04-14T17:05:28.443Z,49.48
2024-04-14T17:07:55.564Z,49.18
2024-04-14T17:10:22.510Z,49.26
2024-04-14T17:12:49.353Z,49.26
2024-04-14T17:15:16.565Z,49.45
2024-04-14T17:17:45.145Z,49.46
2024-04-14T17:20:11.849Z,49.43
2024-04-14T17:22:38.829Z,49.09
2024-04-14T17:25:07.251Z,49.00
2024-04-14T17:27:34.128Z,48.96
2024-04-14T17:30:00.989Z,49.07
2024-04-14T17:32:27.854Z,49.46
2024-04-14T17:34:54.825Z,49.63
2024-04-14T17:37:21.820Z,49.43
2024-04-14T17:39:48.960Z,49.08
2024-04-14T17:42:15.728Z,49.70
2024-04-14T17:44:42.392Z,49.94
2024-04-14T17:47:09.259Z,49.66
2024-04-14T17:49:36.372Z,49.99
2024-04-14T17:52:03.203Z,49.83
2024-04-14T17:54:29.962Z,50.36
2024-04-14T17:56:56.841Z,49.99
2024-04-14T17:59:23.722Z,50.28
2024-04-14T18:01:50.688Z,50.73
2024-04-14T18:04:17.510Z,50.46
2024-04-14T18:06:44.281Z,50.26
2024-04-14T18:09:11.116Z,50.44
2024-04-14T18:11:38.807Z,50.69
2024-04-14T18:14:06.016Z,50.55
2024-04-14T18:16:32.966Z,51.23
2024-04-14T18:18:59.750Z,51.12
2024-04-14T18:21:26.500Z,51.65
2024-04-14T18:23:53.361Z,51.18
2024-04-14T18:26:20.029Z,51.52
2024-04-14T18:28:49.809Z,52.15
2024-04-14T18:31:18.908Z,53.09
2024-04-14T18:33:45.934Z,53.52
2024-04-14T18:36:18.536Z,53.65
2024-04-14T18:38:46.511Z,54.07
2024-04-14T18:41:13.496Z,54.44
2024-04-14T18:43:40.235Z,54.94
2024-04-14T18:46:07.413Z,55.03
2024-04-14T18:48:36.513Z,55.06
2024-04-14T18:51:04.686Z,55.27
2024-04-14T18:53:31.608Z,55.54
2024-04-14T18:56:05.059Z,55.31
2024-04-14T18:58:34.083Z,55.43
2024-04-14T19:01:04.320Z,55.43
2024-04-14T19:03:32.303Z,55.76
2024-04-14T19:06:03.367Z,55.93
2024-04-14T19:08:30.313Z,56.19
2024-04-14T19:10:57.116Z,55.72
2024-04-14T19:13:23.933Z,55.80
2024-04-14T19:16:00.749Z,55.89
2024-04-14T19:18:27.860Z,57.11
2024-04-14T19:20:54.889Z,57.49
2024-04-14T19:23:22.038Z,57.82
2024-04-14T19:25:49.013Z,58.02
2024-04-14T19:28:17.029Z,58.54
2024-04-14T19:30:44.298Z,58.73
2024-04-14T19:33:11.363Z,60.03
2024-04-14T19:35:46.724Z,61.25
2024-04-14T19:38:23.972Z,62.33
2024-04-14T19:40:50.676Z,63.51
2024-04-14T19:43:17.538Z,64.10
2024-04-14T19:45:44.430Z,64.79
2024-04-14T19:48:11.224Z,64.99
2024-04-14T19:50:37.998Z,65.96
2024-04-14T19:53:05.641Z,65.80
2024-04-14T19:55:32.420Z,66.18
2024-04-14T19:57:59.208Z,66.62
2024-04-14T20:00:26.229Z,65.92
2024-04-14T20:02:52.998Z,66.54
2024-04-14T20:05:20.210Z,66.69
2024-04-14T20:07:47.418Z,67.10
2024-04-14T20:10:14.311Z,67.71
2024-04-14T20:12:41.329Z,68.40
2024-04-14T20:15:08.465Z,68.65
2024-04-14T20:17:35.212Z,69.89
2024-04-14T20:20:02.129Z,70.36
2024-04-14T20:22:28.789Z,71.38
2024-04-14T20:24:55.595Z,71.01
2024-04-14T20:27:22.469Z,71.47
2024-04-14T20:29:49.516Z,72.21
2024-04-14T20:32:16.248Z,73.00
2024-04-14T20:34:42.904Z,74.05
2024-04-14T20:37:09.786Z,76.11
2024-04-14T20:39:37.122Z,79.27
2024-04-14T20:42:04.028Z,78.20
2024-04-14T20:44:31.481Z,80.12
2024-04-14T20:46:58.214Z,79.87
2024-04-14T20:49:24.942Z,81.33
2024-04-14T20:51:51.910Z,82.41
2024-04-14T20:54:18.578Z,82.37
2024-04-14T20:56:45.294Z,83.15
2024-04-14T20:59:12.062Z,84.59
2024-04-14T21:01:38.983Z,85.59
2024-04-14T21:04:05.778Z,87.78
2024-04-14T21:06:32.770Z,86.20
2024-04-14T21:08:59.507Z,87.04
2024-04-14T21:11:26.244Z,87.89
2024-04-14T21:13:53.224Z,88.74
2024-04-14T21:16:20.102Z,88.83
2024-04-14T21:18:48.339Z,89.27
2024-04-14T21:21:15.326Z,89.21
2024-04-14T21:23:42.370Z,88.90
2024-04-14T21:26:09.518Z,90.84
2024-04-14T21:28:37.748Z,90.88
2024-04-14T21:31:05.322Z,91.52
2024-04-14T21:33:32.600Z,92.54
2024-04-14T21:35:59.832Z,91.95
2024-04-14T21:38:26.576Z,91.49
2024-04-14T21:40:56.595Z,90.77
2024-04-14T21:43:23.514Z,90.15
2024-04-14T21:46:00.907Z,91.53
2024-04-14T21:48:28.801Z,93.53
2024-04-14T21:51:06.827Z,96.41
2024-04-14T21:53:35.575Z,98.02
2024-04-14T21:56:03.543Z,97.61
2024-04-14T21:58:34.952Z,97.19
2024-04-14T22:01:11.897Z,96.16
2024-04-14T22:03:38.870Z,96.44
2024-04-14T22:06:05.817Z,98.93
2024-04-14T22:08:32.687Z,100.00
2024-04-14T22:11:00.422Z,100.00
2024-04-14T22:13:29.536Z,100.00
2024-04-14T22:15:56.431Z,100.00
2024-04-14T22:18:24.118Z,100.00
2024-04-14T22:20:50.927Z,100.00
2024-04-14T22:23:18.081Z,100.00
2024-04-14T22:25:44.944Z,100.00
2024-04-14T22:28:12.108Z,100.00
2024-04-14T22:30:39.228Z,100.00
2024-04-14T22:33:08.375Z,100.00
2024-04-14T22:35:35.105Z,100.00
2024-04-14T22:38:02.353Z,100.00
2024-04-14T22:40:29.449Z,100.00
2024-04-14T22:42:56.484Z,100.00
2024-04-14T22:45:23.991Z,100.00
2024-04-14T22:47:51.271Z,100.00
2024-04-14T22:50:18.322Z,100.00
2024-04-14T22:52:45.187Z,100.00
2024-04-14T22:55:12.105Z,100.00
2024-04-14T22:57:39.170Z,100.00
2024-04-14T23:00:11.659Z,100.00
2024-04-14T23:02:38.811Z,100.00
2024-04-14T23:05:06.064Z,100.00
2024-04-14T23:07:32.936Z,100.00
2024-04-14T23:10:01.118Z,100.00
2024-04-14T23:12:28.344Z,100.00
2024-04-14T23:14:55.373Z,100.00
2024-04-14T23:17:23.017Z,100.00
2024-04-14T23:19:49.949Z,100.00
2024-04-14T23:22:17.302Z,100.00
2024-04-14T23:24:44.349Z,100.00
2024-04-14T23:27:11.067Z,100.00
2024-04-14T23:29:38.258Z,100.00
2024-04-14T23:32:05.569Z,100.00
2024-04-14T23:34:32.304Z,100.00
2024-04-14T23:36:59.455Z,100.00
2024-04-14T23:39:26.237Z,100.00
2024-04-14T23:41:52.922Z,100.00
2024-04-14T23:44:19.922Z,100.00
2024-04-14T23:46:46.840Z,100.00
2024-04-14T23:49:13.751Z,100.00
2024-04-14T23:51:40.671Z,100.00
2024-04-14T23:54:07.567Z,100.00
2024-04-14T23:56:34.290Z,100.00
2024-04-14T23:59:01.269Z,100.00
